createdAt,value
2022-12-08T00:01:23.099Z,13.95
2022-12-08T00:03:50.707Z,11.45
2022-12-08T00:06:46.410Z,12.05
2022-12-08T00:09:21.893Z,12.90
2022-12-08T00:11:50.305Z,16.92
2022-12-08T00:14:16.764Z,13.90
2022-12-08T00:16:43.225Z,12.77
2022-12-08T00:19:09.643Z,21.05
2022-12-08T00:21:35.992Z,14.70
2022-12-08T00:24:02.374Z,15.35
2022-12-08T00:26:28.779Z,13.50
2022-12-08T00:28:55.188Z,16.10
2022-12-08T00:31:21.743Z,14.02
2022-12-08T00:33:48.140Z,16.77
2022-12-08T00:36:15.055Z,14.73
2022-12-08T00:38:41.873Z,17.17
2022-12-08T00:41:13.430Z,16.33
2022-12-08T00:43:39.981Z,16.55
2022-12-08T00:46:06.505Z,14.85
2022-12-08T00:48:33.681Z,14.68
2022-12-08T00:51:00.200Z,16.50
2022-12-08T00:53:26.580Z,14.05
2022-12-08T00:55:53.543Z,15.65
2022-12-08T00:58:19.943Z,14.10
2022-12-08T01:00:46.419Z,15.85
2022-12-08T01:03:13.204Z,15.23
2022-12-08T01:05:39.879Z,13.77
2022-12-08T01:08:07.154Z,19.35
2022-12-08T01:10:37.453Z,13.95
2022-12-08T01:13:04.181Z,14.13
2022-12-08T01:15:30.555Z,13.55
2022-12-08T01:17:57.098Z,16.15
2022-12-08T01:20:23.790Z,14.05
2022-12-08T01:22:50.178Z,15.40
2022-12-08T01:25:16.560Z,15.07
2022-12-08T01:27:42.939Z,16.17
2022-12-08T01:30:09.950Z,16.73
2022-12-08T01:32:36.804Z,15.55
2022-12-08T01:35:03.424Z,19.77
2022-12-08T01:37:29.855Z,18.67
2022-12-08T01:39:56.294Z,19.00
2022-12-08T01:42:23.354Z,18.08
2022-12-08T01:44:54.472Z,16.33
2022-12-08T01:47:22.816Z,19.75
2022-12-08T01:49:49.302Z,18.63
2022-12-08T01:52:35.683Z,17.48
2022-12-08T01:55:08.061Z,21.77
2022-12-08T01:57:40.272Z,17.02
2022-12-08T02:00:09.848Z,12.77
2022-12-08T02:02:46.282Z,20.05
2022-12-08T02:05:13.707Z,18.42
2022-12-08T02:07:40.810Z,16.80
2022-12-08T02:10:08.030Z,18.70
2022-12-08T02:12:34.388Z,17.05
2022-12-08T02:15:04.981Z,16.88
2022-12-08T02:18:06.693Z,16.52
2022-12-08T02:20:56.019Z,17.52
2022-12-08T02:23:41.156Z,17.35
2022-12-08T02:26:51.534Z,18.83
2022-12-08T02:29:46.250Z,17.23
2022-12-08T02:32:31.374Z,16.77
2022-12-08T02:35:08.212Z,18.20
2022-12-08T02:38:16.693Z,16.35
2022-12-08T02:40:57.766Z,17.55
2022-12-08T02:43:43.022Z,14.98
2022-12-08T02:46:13.791Z,15.60
2022-12-08T02:48:41.584Z,16.42
2022-12-08T02:51:08.031Z,18.45
2022-12-08T02:53:36.301Z,16.77
2022-12-08T02:56:22.400Z,21.95
2022-12-08T02:58:56.808Z,18.48
2022-12-08T03:01:46.735Z,21.85
2022-12-08T03:04:13.319Z,19.02
2022-12-08T03:06:48.684Z,17.70
2022-12-08T03:09:36.669Z,20.67
2022-12-08T03:12:30.998Z,20.38
2022-12-08T03:15:04.657Z,17.40
2022-12-08T03:17:31.908Z,17.85
2022-12-08T03:20:03.366Z,18.52
2022-12-08T03:22:30.743Z,17.88
2022-12-08T03:24:58.137Z,19.45
2022-12-08T03:27:28.527Z,19.55
2022-12-08T03:29:57.495Z,20.20
2022-12-08T03:32:34.334Z,19.02
2022-12-08T03:35:05.861Z,19.92
2022-12-08T03:37:35.450Z,20.65
2022-12-08T03:40:04.242Z,14.93
2022-12-08T03:42:30.879Z,16.13
2022-12-08T03:44:57.234Z,19.35
2022-12-08T03:47:23.607Z,19.23
2022-12-08T03:49:49.950Z,17.13
2022-12-08T03:52:16.361Z,20.08
2022-12-08T03:54:42.800Z,18.45
2022-12-08T03:57:09.239Z,20.30
2022-12-08T03:59:35.644Z,17.38
2022-12-08T04:02:02.037Z,19.80
2022-12-08T04:04:28.456Z,18.15
2022-12-08T04:06:54.835Z,16.95
2022-12-08T04:09:21.196Z,17.25
2022-12-08T04:11:47.644Z,17.95
2022-12-08T04:14:14.020Z,20.83
2022-12-08T04:16:40.451Z,14.55
2022-12-08T04:19:07.081Z,18.45
2022-12-08T04:21:33.614Z,17.60
2022-12-08T04:24:01.432Z,19.85
2022-12-08T04:26:28.332Z,18.92
2022-12-08T04:28:54.664Z,20.42
2022-12-08T04:31:21.138Z,20.50
2022-12-08T04:33:48.535Z,19.95
2022-12-08T04:36:15.091Z,24.55
2022-12-08T04:38:41.445Z,19.45
2022-12-08T04:41:07.892Z,20.20
2022-12-08T04:43:35.744Z,17.98
2022-12-08T04:46:02.135Z,21.05
2022-12-08T04:48:28.592Z,20.58
2022-12-08T04:50:54.960Z,15.63
2022-12-08T04:53:21.372Z,21.40
2022-12-08T04:55:49.557Z,16.52
2022-12-08T04:58:18.008Z,18.92
2022-12-08T05:00:45.537Z,19.17
2022-12-08T05:03:12.451Z,16.33
2022-12-08T05:05:39.129Z,20.98
2022-12-08T05:08:06.020Z,17.42
2022-12-08T05:10:32.886Z,20.13
2022-12-08T05:13:00.835Z,21.08
2022-12-08T05:15:27.413Z,20.42
2022-12-08T05:17:53.921Z,16.67
2022-12-08T05:20:20.389Z,17.85
2022-12-08T05:22:46.773Z,19.63
2022-12-08T05:25:13.199Z,16.50
2022-12-08T05:27:39.540Z,15.13
2022-12-08T05:30:06.918Z,15.68
2022-12-08T05:32:33.572Z,15.60
2022-12-08T05:34:59.907Z,16.45
2022-12-08T05:37:26.316Z,15.25
2022-12-08T05:39:52.743Z,14.00
2022-12-08T05:42:24.355Z,12.50
2022-12-08T05:44:51.126Z,16.90
2022-12-08T05:47:17.463Z,16.27
2022-12-08T05:49:43.913Z,14.75
2022-12-08T05:52:10.472Z,14.57
2022-12-08T05:54:36.976Z,14.30
2022-12-08T05:57:03.604Z,14.80
2022-12-08T05:59:29.977Z,12.63
2022-12-08T06:01:56.381Z,13.23
2022-12-08T06:04:22.837Z,12.73
2022-12-08T06:06:49.371Z,16.25
2022-12-08T06:09:15.812Z,14.73
2022-12-08T06:11:42.442Z,12.38
2022-12-08T06:14:12.337Z,13.45
2022-12-08T06:16:39.125Z,12.25
2022-12-08T06:19:05.657Z,14.68
2022-12-08T06:21:32.181Z,12.85
2022-12-08T06:23:58.604Z,12.50
2022-12-08T06:26:25.026Z,15.02
2022-12-08T06:28:51.591Z,15.60
2022-12-08T06:31:21.186Z,13.70
2022-12-08T06:33:47.827Z,13.05
2022-12-08T06:36:15.831Z,11.60
2022-12-08T06:38:43.752Z,11.52
2022-12-08T06:41:11.106Z,15.27
2022-12-08T06:43:38.195Z,11.50
2022-12-08T06:46:07.331Z,15.10
2022-12-08T06:48:33.716Z,13.07
2022-12-08T06:51:11.080Z,12.70
2022-12-08T06:53:38.901Z,13.75
2022-12-08T06:56:06.041Z,13.25
2022-12-08T06:58:32.704Z,12.63
2022-12-08T07:01:04.531Z,13.63
2022-12-08T07:03:30.979Z,17.58
2022-12-08T07:06:03.304Z,12.85
2022-12-08T07:10:56.961Z,12.98
2022-12-08T07:13:23.480Z,13.25
2022-12-08T07:15:50.030Z,12.45
2022-12-08T07:18:16.391Z,16.80
2022-12-08T07:20:42.710Z,12.98
2022-12-08T07:23:09.193Z,14.35
2022-12-08T07:25:35.573Z,14.20
2022-12-08T07:28:07.804Z,12.48
2022-12-08T07:30:34.212Z,15.75
2022-12-08T07:33:02.596Z,16.77
2022-12-08T07:35:29.248Z,15.55
2022-12-08T07:37:55.598Z,12.68
2022-12-08T07:40:21.963Z,18.00
2022-12-08T07:42:49.271Z,17.35
2022-12-08T07:45:15.819Z,14.07
2022-12-08T07:47:42.139Z,15.75
2022-12-08T07:50:08.666Z,17.98
2022-12-08T07:52:35.609Z,16.10
2022-12-08T07:55:02.152Z,15.65
2022-12-08T07:57:28.503Z,16.67
2022-12-08T07:59:54.880Z,14.85
2022-12-08T08:02:24.891Z,16.50
2022-12-08T08:04:52.840Z,12.43
2022-12-08T08:07:19.565Z,14.77
2022-12-08T08:09:46.062Z,12.77
2022-12-08T08:15:01.531Z,12.85
2022-12-08T08:17:29.724Z,14.77
2022-12-08T08:19:56.870Z,14.27
2022-12-08T08:22:25.154Z,15.18
2022-12-08T08:24:52.182Z,13.05
2022-12-08T08:27:19.448Z,14.38
2022-12-08T08:29:45.886Z,15.02
2022-12-08T08:32:12.342Z,12.07
2022-12-08T08:34:38.908Z,13.70
2022-12-08T08:37:05.300Z,13.90
2022-12-08T08:39:31.865Z,13.80
2022-12-08T08:41:58.619Z,14.57
2022-12-08T08:44:25.681Z,10.32
2022-12-08T08:46:52.191Z,13.30
2022-12-08T08:49:18.654Z,14.15
2022-12-08T08:51:44.985Z,17.38
2022-12-08T08:54:11.725Z,15.52
2022-12-08T08:56:38.051Z,16.38
2022-12-08T08:59:04.507Z,16.80
2022-12-08T09:01:30.964Z,21.33
2022-12-08T09:03:57.676Z,17.00
2022-12-08T09:06:25.491Z,14.45
2022-12-08T09:08:52.090Z,21.67
2022-12-08T09:11:18.590Z,15.77
2022-12-08T09:13:48.310Z,18.27
2022-12-08T09:16:15.372Z,16.70
2022-12-08T09:18:42.620Z,19.92
2022-12-08T09:21:16.389Z,17.42
2022-12-08T09:23:43.631Z,16.67
2022-12-08T09:26:10.004Z,15.48
2022-12-08T09:28:36.665Z,20.27
2022-12-08T09:31:03.424Z,19.50
2022-12-08T09:33:30.117Z,15.88
2022-12-08T09:35:56.649Z,14.88
2022-12-08T09:38:24.796Z,18.98
2022-12-08T09:40:55.107Z,17.30
2022-12-08T09:43:45.285Z,18.17
2022-12-08T09:46:15.083Z,16.30
2022-12-08T09:48:48.775Z,17.42
2022-12-08T09:51:15.993Z,16.95
2022-12-08T09:53:48.209Z,15.30
2022-12-08T09:56:29.904Z,14.65
2022-12-08T09:58:58.124Z,14.85
2022-12-08T10:01:28.949Z,15.75
2022-12-08T10:03:56.027Z,16.15
2022-12-08T10:06:43.409Z,16.02
2022-12-08T10:09:28.703Z,15.30
2022-12-08T10:12:22.766Z,14.13
2022-12-08T10:14:54.987Z,14.02
2022-12-08T10:20:15.685Z,11.52
2022-12-08T10:22:44.931Z,11.43
2022-12-08T10:25:33.111Z,11.23
2022-12-08T10:27:59.744Z,11.18
2022-12-08T10:30:26.238Z,9.20
2022-12-08T10:32:53.851Z,8.15
2022-12-08T10:35:22.616Z,10.57
2022-12-08T10:37:57.708Z,15.27
2022-12-08T10:40:27.875Z,9.30
2022-12-08T10:42:58.949Z,10.63
2022-12-08T10:45:29.924Z,13.98
2022-12-08T10:48:03.772Z,11.88
2022-12-08T10:50:41.362Z,12.90
2022-12-08T10:53:07.824Z,11.68
2022-12-08T10:55:46.473Z,11.48
2022-12-08T10:58:45.394Z,10.80
2022-12-08T11:01:16.873Z,13.63
2022-12-08T11:03:52.158Z,12.27
2022-12-08T11:06:23.995Z,14.77
2022-12-08T11:08:54.059Z,12.75
2022-12-08T11:11:29.092Z,12.68
2022-12-08T11:13:56.571Z,11.15
2022-12-08T11:16:23.468Z,12.40
2022-12-08T11:18:57.480Z,11.55
2022-12-08T11:21:35.615Z,10.10
2022-12-08T11:24:20.900Z,13.90
2022-12-08T11:27:08.484Z,9.68
2022-12-08T11:29:35.863Z,13.68
2022-12-08T11:32:13.344Z,10.60
2022-12-08T11:34:48.532Z,13.00
2022-12-08T11:37:34.903Z,12.77
2022-12-08T11:40:08.325Z,10.73
2022-12-08T11:42:42.558Z,10.98
2022-12-08T11:45:18.580Z,8.02
2022-12-08T11:48:19.031Z,6.32
2022-12-08T11:50:51.520Z,7.82
2022-12-08T11:53:28.980Z,5.38
2022-12-08T11:55:59.006Z,5.30
2022-12-08T11:58:37.993Z,6.25
2022-12-08T12:01:05.659Z,6.28
2022-12-08T12:03:40.774Z,6.78
2022-12-08T12:09:35.268Z,5.00
2022-12-08T12:12:13.632Z,4.45
2022-12-08T12:15:04.927Z,6.53
2022-12-08T12:17:37.584Z,6.68
2022-12-08T12:20:17.877Z,6.18
2022-12-08T12:22:49.412Z,11.60
2022-12-08T12:25:18.987Z,9.38
2022-12-08T12:27:46.438Z,5.93
2022-12-08T12:30:25.142Z,5.38
2022-12-08T12:32:56.648Z,6.20
2022-12-08T12:35:34.497Z,5.95
2022-12-08T12:38:37.507Z,6.72
2022-12-08T12:41:07.448Z,7.45
2022-12-08T12:43:36.600Z,5.72
2022-12-08T12:46:27.601Z,5.07
2022-12-08T12:49:14.738Z,5.38
2022-12-08T12:51:41.066Z,5.85
2022-12-08T12:54:22.617Z,4.05
2022-12-08T12:56:53.048Z,5.55
2022-12-08T12:59:22.732Z,10.25
2022-12-08T13:01:54.517Z,5.13
2022-12-08T13:04:30.288Z,6.13
2022-12-08T13:06:57.095Z,5.32
2022-12-08T13:09:33.248Z,3.92
2022-12-08T13:12:09.569Z,4.03
2022-12-08T13:14:48.964Z,4.43
2022-12-08T13:17:25.381Z,5.70
2022-12-08T13:19:56.206Z,5.05
2022-12-08T13:22:54.121Z,3.85
2022-12-08T13:25:44.893Z,5.40
2022-12-08T13:28:30.411Z,5.28
2022-12-08T13:31:01.525Z,4.65
2022-12-08T13:33:31.686Z,3.63
2022-12-08T13:36:16.945Z,5.07
2022-12-08T13:38:46.513Z,3.28
2022-12-08T13:41:20.297Z,3.72
2022-12-08T13:44:50.316Z,4.32
2022-12-08T13:47:09.787Z,4.78
2022-12-08T13:56:59.502Z,4.72
2022-12-08T13:58:36.473Z,4.85
2022-12-08T14:01:14.762Z,3.35
2022-12-08T14:04:30.551Z,3.33
2022-12-08T14:06:42.579Z,5.43
2022-12-08T14:09:15.942Z,3.65
2022-12-08T14:11:51.671Z,5.25
2022-12-08T14:14:46.039Z,4.32
2022-12-08T14:17:14.440Z,3.70
2022-12-08T14:19:44.837Z,4.20
2022-12-08T14:22:14.904Z,3.70
2022-12-08T14:24:48.413Z,3.08
2022-12-08T14:27:18.274Z,3.97
2022-12-08T14:29:50.281Z,3.75
2022-12-08T14:32:29.939Z,3.60
2022-12-08T14:34:59.191Z,4.22
2022-12-08T14:37:28.679Z,5.03
2022-12-08T14:40:01.516Z,4.75
2022-12-08T14:45:05.618Z,4.35
2022-12-08T14:47:34.087Z,5.05
2022-12-08T14:50:03.227Z,5.78
2022-12-08T14:52:30.423Z,6.30
2022-12-08T14:54:58.025Z,6.18
2022-12-08T14:57:31.541Z,6.63
2022-12-08T14:59:58.030Z,5.55
2022-12-08T15:02:31.003Z,7.18
2022-12-08T15:07:29.471Z,7.07
2022-12-08T15:10:14.692Z,5.50
2022-12-08T15:13:25.128Z,4.32
2022-12-08T15:15:57.931Z,4.90
2022-12-08T15:18:36.291Z,6.28
2022-12-08T15:21:05.895Z,8.13
2022-12-08T15:23:42.386Z,5.95
2022-12-08T15:26:09.236Z,5.85
2022-12-08T15:28:35.624Z,7.82
2022-12-08T15:31:02.005Z,7.68
2022-12-08T15:33:28.379Z,9.60
2022-12-08T15:35:54.881Z,6.28
2022-12-08T15:38:29.133Z,6.72
2022-12-08T15:40:58.576Z,7.30
2022-12-08T15:43:25.168Z,7.18
2022-12-08T15:45:59.076Z,8.55
2022-12-08T15:48:28.737Z,9.70
2022-12-08T15:50:56.362Z,7.15
2022-12-08T15:53:22.990Z,6.72
2022-12-08T15:56:18.992Z,7.47
2022-12-08T15:58:55.378Z,7.50
2022-12-08T16:01:22.933Z,8.65
2022-12-08T16:09:32.294Z,9.57
2022-12-08T16:12:17.718Z,10.15
2022-12-08T16:15:47.027Z,9.75
2022-12-08T16:17:32.013Z,11.05
2022-12-08T16:19:58.912Z,9.88
2022-12-08T16:25:20.719Z,13.32
2022-12-08T16:28:01.309Z,14.90
2022-12-08T16:30:32.455Z,9.38
2022-12-08T16:32:58.797Z,11.65
2022-12-08T16:35:25.186Z,12.02
2022-12-08T16:37:51.619Z,11.65
2022-12-08T16:40:18.170Z,12.18
2022-12-08T16:42:45.690Z,12.32
2022-12-08T16:45:22.855Z,12.88
2022-12-08T16:47:55.284Z,11.55
2022-12-08T16:50:26.496Z,6.97
2022-12-08T16:52:59.058Z,12.35
2022-12-08T16:55:25.968Z,9.63
2022-12-08T16:57:53.311Z,12.90
2022-12-08T17:00:21.987Z,12.07
2022-12-08T17:02:48.646Z,12.77
2022-12-08T17:05:17.737Z,10.73
2022-12-08T17:07:48.413Z,11.93
2022-12-08T17:10:18.433Z,13.07
2022-12-08T17:12:45.579Z,16.13
2022-12-08T17:15:15.127Z,14.10
2022-12-08T17:17:41.740Z,11.95
2022-12-08T17:20:14.805Z,12.57
2022-12-08T17:25:08.361Z,17.30
2022-12-08T17:27:35.703Z,13.85
2022-12-08T17:30:02.249Z,12.55
2022-12-08T17:32:28.853Z,12.02
2022-12-08T17:34:55.203Z,13.15
2022-12-08T17:37:21.638Z,17.23
2022-12-08T17:39:48.123Z,12.73
2022-12-08T17:42:14.498Z,14.07
2022-12-08T17:44:40.984Z,15.88
2022-12-08T17:47:07.446Z,14.57
2022-12-08T17:49:33.911Z,17.75
2022-12-08T17:52:03.565Z,15.63
2022-12-08T17:54:30.761Z,18.23
2022-12-08T17:56:58.496Z,17.10
2022-12-08T17:59:26.673Z,14.80
2022-12-08T18:01:54.602Z,12.93
2022-12-08T18:04:21.262Z,16.15
2022-12-08T18:06:47.717Z,14.65
2022-12-08T18:09:15.227Z,13.65
2022-12-08T18:11:43.093Z,16.70
2022-12-08T18:14:10.785Z,12.60
2022-12-08T18:16:40.148Z,14.90
2022-12-08T18:19:07.558Z,15.10
2022-12-08T18:21:34.523Z,13.50
2022-12-08T18:24:00.969Z,13.43
2022-12-08T18:26:28.299Z,13.13
2022-12-08T18:28:54.652Z,12.00
2022-12-08T18:31:22.459Z,10.68
2022-12-08T18:33:50.302Z,12.48
2022-12-08T18:36:20.340Z,9.02
2022-12-08T18:38:47.200Z,8.63
2022-12-08T18:41:20.191Z,11.60
2022-12-08T18:46:14.053Z,9.00
2022-12-08T18:48:47.056Z,10.68
2022-12-08T18:51:16.026Z,8.55
2022-12-08T18:53:42.900Z,11.40
2022-12-08T18:56:21.161Z,10.20
2022-12-08T18:58:47.597Z,9.75
2022-12-08T19:01:14.529Z,10.88
2022-12-08T19:03:45.647Z,12.30
2022-12-08T19:06:25.047Z,8.35
2022-12-08T19:08:51.459Z,7.75
2022-12-08T19:11:26.344Z,6.63
2022-12-08T19:13:53.904Z,8.18
2022-12-08T19:16:20.885Z,6.65
2022-12-08T19:18:47.405Z,8.25
2022-12-08T19:21:13.886Z,8.55
2022-12-08T19:23:40.963Z,11.05
2022-12-08T19:26:08.335Z,11.07
2022-12-08T19:28:35.259Z,10.60
2022-12-08T19:31:07.084Z,10.85
2022-12-08T19:33:34.383Z,10.10
2022-12-08T19:36:09.477Z,7.63
2022-12-08T19:38:56.042Z,10.85
2022-12-08T19:41:42.393Z,11.48
2022-12-08T19:44:26.332Z,9.48
2022-12-08T19:46:53.050Z,9.02
2022-12-08T19:49:19.501Z,13.23
2022-12-08T19:51:45.940Z,10.75
2022-12-08T19:54:12.501Z,9.52
2022-12-08T19:56:38.906Z,11.20
2022-12-08T19:59:05.313Z,9.65
2022-12-08T20:01:31.755Z,10.48
2022-12-08T20:03:58.116Z,11.90
2022-12-08T20:06:26.601Z,11.95
2022-12-08T20:08:53.945Z,9.75
2022-12-08T20:11:20.877Z,10.05
2022-12-08T20:13:47.778Z,10.40
2022-12-08T20:16:15.823Z,11.02
2022-12-08T20:18:44.014Z,8.07
2022-12-08T20:21:12.102Z,10.88
2022-12-08T20:23:38.567Z,10.05
2022-12-08T20:26:11.653Z,8.85
2022-12-08T20:31:05.331Z,9.75
2022-12-08T20:33:31.958Z,12.70
2022-12-08T20:36:04.016Z,9.48
2022-12-08T20:38:31.081Z,12.73
2022-12-08T20:40:58.571Z,10.13
2022-12-08T20:43:25.495Z,10.88
2022-12-08T20:45:51.911Z,11.27
2022-12-08T20:48:18.554Z,12.55
2022-12-08T20:50:45.023Z,10.73
2022-12-08T20:53:11.581Z,9.82
2022-12-08T20:55:41.556Z,11.98
2022-12-08T20:58:08.391Z,15.20
2022-12-08T21:00:34.766Z,9.68
2022-12-08T21:03:01.605Z,10.40
2022-12-08T21:05:28.301Z,11.63
2022-12-08T21:07:54.986Z,10.23
2022-12-08T21:10:21.521Z,10.05
2022-12-08T21:12:47.986Z,11.52
2022-12-08T21:15:14.355Z,12.60
2022-12-08T21:17:40.952Z,13.65
2022-12-08T21:20:08.182Z,13.50
2022-12-08T21:22:34.738Z,12.95
2022-12-08T21:25:01.132Z,13.73
2022-12-08T21:27:27.829Z,12.40
2022-12-08T21:29:54.204Z,13.27
2022-12-08T21:32:23.404Z,13.23
2022-12-08T21:34:53.634Z,13.00
2022-12-08T21:37:21.603Z,16.83
2022-12-08T21:39:48.061Z,16.02
2022-12-08T21:42:34.472Z,12.48
2022-12-08T21:45:01.364Z,11.52
2022-12-08T21:47:27.983Z,12.18
2022-12-08T21:49:54.540Z,10.50
2022-12-08T21:52:20.887Z,13.98
2022-12-08T21:54:47.391Z,12.50
2022-12-08T21:57:13.809Z,11.43
2022-12-08T21:59:40.322Z,10.50
2022-12-08T22:02:10.000Z,13.23
2022-12-08T22:04:36.694Z,17.02
2022-12-08T22:07:03.241Z,15.98
2022-12-08T22:09:29.745Z,15.13
2022-12-08T22:11:56.413Z,15.90
2022-12-08T22:14:22.853Z,15.00
2022-12-08T22:16:49.776Z,16.38
2022-12-08T22:19:16.676Z,14.23
2022-12-08T22:21:43.231Z,14.32
2022-12-08T22:24:09.841Z,14.25
2022-12-08T22:26:36.393Z,13.10
2022-12-08T22:29:02.910Z,13.27
2022-12-08T22:31:29.362Z,12.23
2022-12-08T22:33:55.956Z,11.20
2022-12-08T22:36:25.397Z,13.88
2022-12-08T22:38:53.086Z,13.18
2022-12-08T22:41:20.262Z,11.88
2022-12-08T22:43:47.390Z,11.85
2022-12-08T22:46:20.190Z,13.48
2022-12-08T22:48:46.652Z,16.38
2022-12-08T22:51:13.601Z,13.50
2022-12-08T22:53:40.228Z,13.55
2022-12-08T22:56:09.576Z,11.43
2022-12-08T22:58:37.061Z,11.35
2022-12-08T23:01:03.537Z,12.05
2022-12-08T23:03:30.742Z,13.02
2022-12-08T23:05:57.384Z,12.60
2022-12-08T23:08:24.352Z,12.45
2022-12-08T23:10:52.794Z,14.90
2022-12-08T23:13:21.090Z,11.63
2022-12-08T23:15:47.870Z,13.65
2022-12-08T23:18:18.728Z,13.30
2022-12-08T23:20:46.113Z,13.43
2022-12-08T23:23:13.268Z,12.68
2022-12-08T23:25:43.269Z,11.85
2022-12-08T23:28:10.418Z,15.13
2022-12-08T23:30:39.597Z,16.63
2022-12-08T23:33:06.221Z,15.38
2022-12-08T23:35:32.782Z,14.80
2022-12-08T23:37:59.203Z,12.38
2022-12-08T23:40:25.658Z,14.32
2022-12-08T23:42:52.237Z,15.55
2022-12-08T23:45:18.569Z,17.30
2022-12-08T23:47:45.074Z,13.93
2022-12-08T23:50:12.411Z,14.45
2022-12-08T23:52:39.938Z,16.27
2022-12-08T23:55:07.381Z,12.52
2022-12-08T23:57:35.648Z,15.90
